Main page
METAR-TAF:

METAR-TAF

Airports :

Lamerd Airport

Lamerd, Iran

latitude: 27-22-22N, longitude: 53-11-20E, elevation: 408 m

Current weather observation

The report was made 14 minutes ago, at 08:00 UTC
Wind 4 kt from the East
Temperature 43°C
Humidity 13%
Pressure 1003 hPa
Visibility: 8000 m

METAR: OISR 250800Z 10004KT 8000 NSC 43/09 Q1003

Time: 12:44 (08:14 UTC)


TAF: missing

Weather observations and forecasts of more than 4000 airports (METAR and TAF reports).

The available stations are represented by yellow and red dots on the map.

Hover mouse over dot to see the name of the station.

Then click to see weather observations and forecasts.

To change the map : click on the green buttons with a black cross to zoom in, on the green button with a dash to zoom out, or on the green arrows for adjacent maps.


METAR-TAF: